sensor_id;sensor_type;location;lat;lon;timestamp;P1;durP1;ratioP1;P2;durP2;ratioP2
37983;SDS011;64625;50.882;4.376;2023-03-05T00:02:11;5.97;;;2.08;;
37983;SDS011;64625;50.882;4.376;2023-03-05T00:04:37;6.90;;;3.30;;
37983;SDS011;64625;50.882;4.376;2023-03-05T00:07:03;10.60;;;3.33;;
37983;SDS011;64625;50.882;4.376;2023-03-05T00:09:30;6.55;;;2.17;;
37983;SDS011;64625;50.882;4.376;2023-03-05T00:11:56;7.47;;;2.38;;
37983;SDS011;64625;50.882;4.376;2023-03-05T00:14:21;9.02;;;2.03;;
37983;SDS011;64625;50.882;4.376;2023-03-05T00:16:47;4.70;;;1.67;;
37983;SDS011;64625;50.882;4.376;2023-03-05T00:19:13;11.90;;;3.42;;
37983;SDS011;64625;50.882;4.376;2023-03-05T00:21:40;11.63;;;2.85;;
37983;SDS011;64625;50.882;4.376;2023-03-05T00:24:14;10.82;;;1.98;;
37983;SDS011;64625;50.882;4.376;2023-03-05T00:26:42;9.90;;;3.00;;
37983;SDS011;64625;50.882;4.376;2023-03-05T00:29:10;10.68;;;2.55;;
37983;SDS011;64625;50.882;4.376;2023-03-05T00:31:42;6.93;;;2.92;;
37983;SDS011;64625;50.882;4.376;2023-03-05T00:34:10;12.85;;;4.18;;
37983;SDS011;64625;50.882;4.376;2023-03-05T00:36:39;8.85;;;2.85;;
37983;SDS011;64625;50.882;4.376;2023-03-05T00:39:15;6.95;;;3.30;;
37983;SDS011;64625;50.882;4.376;2023-03-05T00:41:42;6.05;;;3.25;;
37983;SDS011;64625;50.882;4.376;2023-03-05T00:44:08;6.93;;;2.50;;
37983;SDS011;64625;50.882;4.376;2023-03-05T00:46:34;6.93;;;2.92;;
37983;SDS011;64625;50.882;4.376;2023-03-05T00:49:01;14.80;;;4.55;;
37983;SDS011;64625;50.882;4.376;2023-03-05T00:51:27;10.27;;;2.70;;
37983;SDS011;64625;50.882;4.376;2023-03-05T00:53:53;18.20;;;5.05;;
37983;SDS011;64625;50.882;4.376;2023-03-05T00:56:19;12.75;;;3.35;;
37983;SDS011;64625;50.882;4.376;2023-03-05T00:58:45;9.93;;;3.25;;
37983;SDS011;64625;50.882;4.376;2023-03-05T01:01:11;10.45;;;2.90;;
37983;SDS011;64625;50.882;4.376;2023-03-05T01:03:38;9.50;;;3.38;;
37983;SDS011;64625;50.882;4.376;2023-03-05T01:06:06;7.57;;;2.60;;
37983;SDS011;64625;50.882;4.376;2023-03-05T01:08:35;7.35;;;3.25;;
37983;SDS011;64625;50.882;4.376;2023-03-05T01:11:02;7.07;;;3.20;;
37983;SDS011;64625;50.882;4.376;2023-03-05T01:13:30;12.40;;;4.18;;
37983;SDS011;64625;50.882;4.376;2023-03-05T01:15:58;7.03;;;3.80;;
37983;SDS011;64625;50.882;4.376;2023-03-05T01:18:24;7.30;;;3.03;;
37983;SDS011;64625;50.882;4.376;2023-03-05T01:20:50;10.73;;;4.05;;
37983;SDS011;64625;50.882;4.376;2023-03-05T01:23:16;7.28;;;2.75;;
37983;SDS011;64625;50.882;4.376;2023-03-05T01:25:42;10.73;;;3.58;;
37983;SDS011;64625;50.882;4.376;2023-03-05T01:28:08;4.78;;;2.60;;
37983;SDS011;64625;50.882;4.376;2023-03-05T01:30:34;10.27;;;3.13;;
37983;SDS011;64625;50.882;4.376;2023-03-05T01:32:59;11.60;;;5.20;;
37983;SDS011;64625;50.882;4.376;2023-03-05T01:35:26;9.30;;;3.05;;
37983;SDS011;64625;50.882;4.376;2023-03-05T01:37:53;9.80;;;2.95;;
37983;SDS011;64625;50.882;4.376;2023-03-05T01:40:28;12.07;;;3.75;;
37983;SDS011;64625;50.882;4.376;2023-03-05T01:42:59;6.75;;;3.00;;
37983;SDS011;64625;50.882;4.376;2023-03-05T01:48:53;14.75;;;3.63;;
37983;SDS011;64625;50.882;4.376;2023-03-05T01:51:38;3.55;;;2.88;;
37983;SDS011;64625;50.882;4.376;2023-03-05T01:54:09;6.78;;;3.33;;
37983;SDS011;64625;50.882;4.376;2023-03-05T01:56:38;6.90;;;4.05;;
37983;SDS011;64625;50.882;4.376;2023-03-05T01:59:05;5.80;;;2.90;;
37983;SDS011;64625;50.882;4.376;2023-03-05T02:01:33;9.32;;;3.60;;
37983;SDS011;64625;50.882;4.376;2023-03-05T02:04:06;8.70;;;3.70;;
37983;SDS011;64625;50.882;4.376;2023-03-05T02:06:34;8.60;;;3.03;;
37983;SDS011;64625;50.882;4.376;2023-03-05T02:09:00;7.93;;;3.05;;
37983;SDS011;64625;50.882;4.376;2023-03-05T02:11:26;9.40;;;3.03;;
37983;SDS011;64625;50.882;4.376;2023-03-05T02:13:52;13.23;;;3.80;;
37983;SDS011;64625;50.882;4.376;2023-03-05T02:16:18;5.35;;;2.88;;
37983;SDS011;64625;50.882;4.376;2023-03-05T02:18:44;14.80;;;3.33;;
37983;SDS011;64625;50.882;4.376;2023-03-05T02:21:10;10.68;;;3.53;;
37983;SDS011;64625;50.882;4.376;2023-03-05T02:23:36;8.88;;;3.60;;
37983;SDS011;64625;50.882;4.376;2023-03-05T02:26:07;7.63;;;3.05;;
37983;SDS011;64625;50.882;4.376;2023-03-05T02:31:13;9.55;;;2.63;;
37983;SDS011;64625;50.882;4.376;2023-03-05T02:33:49;12.85;;;4.65;;
37983;SDS011;64625;50.882;4.376;2023-03-05T02:36:16;7.18;;;2.97;;
37983;SDS011;64625;50.882;4.376;2023-03-05T02:38:43;14.90;;;3.45;;
37983;SDS011;64625;50.882;4.376;2023-03-05T02:41:10;7.80;;;4.78;;
37983;SDS011;64625;50.882;4.376;2023-03-05T02:43:37;13.05;;;3.13;;
37983;SDS011;64625;50.882;4.376;2023-03-05T02:46:02;9.45;;;3.15;;
37983;SDS011;64625;50.882;4.376;2023-03-05T02:48:29;9.45;;;3.92;;
37983;SDS011;64625;50.882;4.376;2023-03-05T02:50:55;10.23;;;3.63;;
37983;SDS011;64625;50.882;4.376;2023-03-05T02:53:22;5.05;;;2.88;;
37983;SDS011;64625;50.882;4.376;2023-03-05T02:55:48;8.88;;;3.70;;
37983;SDS011;64625;50.882;4.376;2023-03-05T02:58:15;12.90;;;3.08;;
37983;SDS011;64625;50.882;4.376;2023-03-05T03:00:41;5.57;;;3.33;;
37983;SDS011;64625;50.882;4.376;2023-03-05T03:03:07;9.93;;;3.33;;
37983;SDS011;64625;50.882;4.376;2023-03-05T03:05:34;12.82;;;3.67;;
37983;SDS011;64625;50.882;4.376;2023-03-05T03:08:00;7.78;;;3.70;;
37983;SDS011;64625;50.882;4.376;2023-03-05T03:10:26;15.93;;;3.00;;
37983;SDS011;64625;50.882;4.376;2023-03-05T03:12:52;18.27;;;4.00;;
37983;SDS011;64625;50.882;4.376;2023-03-05T03:15:19;16.10;;;5.07;;
37983;SDS011;64625;50.882;4.376;2023-03-05T03:17:46;6.00;;;3.17;;
37983;SDS011;64625;50.882;4.376;2023-03-05T03:20:16;15.73;;;4.03;;
37983;SDS011;64625;50.882;4.376;2023-03-05T03:22:46;9.63;;;4.70;;
37983;SDS011;64625;50.882;4.376;2023-03-05T03:25:14;6.18;;;3.63;;
37983;SDS011;64625;50.882;4.376;2023-03-05T03:27:42;15.88;;;5.13;;
37983;SDS011;64625;50.882;4.376;2023-03-05T03:30:07;13.48;;;3.85;;
37983;SDS011;64625;50.882;4.376;2023-03-05T03:32:34;16.90;;;4.53;;
37983;SDS011;64625;50.882;4.376;2023-03-05T03:34:59;9.23;;;4.75;;
37983;SDS011;64625;50.882;4.376;2023-03-05T03:37:25;7.80;;;3.80;;
37983;SDS011;64625;50.882;4.376;2023-03-05T03:39:51;8.32;;;4.30;;
37983;SDS011;64625;50.882;4.376;2023-03-05T03:42:17;10.40;;;4.65;;
37983;SDS011;64625;50.882;4.376;2023-03-05T03:44:44;11.30;;;4.90;;
37983;SDS011;64625;50.882;4.376;2023-03-05T03:47:10;7.88;;;4.53;;
37983;SDS011;64625;50.882;4.376;2023-03-05T03:49:36;12.57;;;4.53;;
37983;SDS011;64625;50.882;4.376;2023-03-05T03:52:02;15.75;;;4.47;;
37983;SDS011;64625;50.882;4.376;2023-03-05T03:54:28;9.20;;;4.15;;
37983;SDS011;64625;50.882;4.376;2023-03-05T03:56:53;12.60;;;4.20;;
37983;SDS011;64625;50.882;4.376;2023-03-05T03:59:19;13.80;;;4.10;;
37983;SDS011;64625;50.882;4.376;2023-03-05T04:01:46;6.43;;;4.20;;
37983;SDS011;64625;50.882;4.376;2023-03-05T04:04:12;12.98;;;4.43;;
37983;SDS011;64625;50.882;4.376;2023-03-05T04:06:38;8.35;;;4.30;;
37983;SDS011;64625;50.882;4.376;2023-03-05T04:09:04;6.93;;;4.07;;
37983;SDS011;64625;50.882;4.376;2023-03-05T04:11:32;12.13;;;4.10;;
37983;SDS011;64625;50.882;4.376;2023-03-05T04:13:58;15.55;;;5.00;;
37983;SDS011;64625;50.882;4.376;2023-03-05T04:16:24;12.43;;;4.50;;
37983;SDS011;64625;50.882;4.376;2023-03-05T04:18:50;18.55;;;5.20;;
37983;SDS011;64625;50.882;4.376;2023-03-05T04:21:15;6.57;;;4.03;;
37983;SDS011;64625;50.882;4.376;2023-03-05T04:23:41;9.23;;;4.32;;
37983;SDS011;64625;50.882;4.376;2023-03-05T04:26:07;11.43;;;4.75;;
37983;SDS011;64625;50.882;4.376;2023-03-05T04:28:33;18.98;;;5.43;;
37983;SDS011;64625;50.882;4.376;2023-03-05T04:31:00;6.90;;;4.20;;
37983;SDS011;64625;50.882;4.376;2023-03-05T04:33:26;22.00;;;4.68;;
37983;SDS011;64625;50.882;4.376;2023-03-05T04:35:52;10.38;;;4.63;;
37983;SDS011;64625;50.882;4.376;2023-03-05T04:38:18;14.07;;;5.50;;
37983;SDS011;64625;50.882;4.376;2023-03-05T04:40:44;9.63;;;4.80;;
37983;SDS011;64625;50.882;4.376;2023-03-05T04:43:10;17.58;;;6.95;;
37983;SDS011;64625;50.882;4.376;2023-03-05T04:45:37;13.48;;;5.63;;
37983;SDS011;64625;50.882;4.376;2023-03-05T04:48:04;10.18;;;5.57;;
37983;SDS011;64625;50.882;4.376;2023-03-05T04:50:30;11.88;;;5.05;;
37983;SDS011;64625;50.882;4.376;2023-03-05T04:52:56;12.20;;;5.43;;
37983;SDS011;64625;50.882;4.376;2023-03-05T04:55:22;9.43;;;5.53;;
37983;SDS011;64625;50.882;4.376;2023-03-05T04:57:48;8.48;;;5.47;;
37983;SDS011;64625;50.882;4.376;2023-03-05T05:00:14;17.02;;;5.43;;
37983;SDS011;64625;50.882;4.376;2023-03-05T05:02:41;12.13;;;5.60;;
37983;SDS011;64625;50.882;4.376;2023-03-05T05:05:09;13.02;;;5.72;;
37983;SDS011;64625;50.882;4.376;2023-03-05T05:07:36;16.48;;;7.07;;
37983;SDS011;64625;50.882;4.376;2023-03-05T05:10:02;17.63;;;6.35;;
37983;SDS011;64625;50.882;4.376;2023-03-05T05:12:29;14.77;;;6.70;;
37983;SDS011;64625;50.882;4.376;2023-03-05T05:14:56;10.32;;;5.63;;
37983;SDS011;64625;50.882;4.376;2023-03-05T05:17:22;17.33;;;6.97;;
37983;SDS011;64625;50.882;4.376;2023-03-05T05:19:48;15.32;;;8.00;;
37983;SDS011;64625;50.882;4.376;2023-03-05T05:22:14;11.93;;;6.78;;
37983;SDS011;64625;50.882;4.376;2023-03-05T05:24:39;16.60;;;7.60;;
37983;SDS011;64625;50.882;4.376;2023-03-05T05:27:05;17.33;;;8.05;;
37983;SDS011;64625;50.882;4.376;2023-03-05T05:29:31;16.08;;;8.32;;
37983;SDS011;64625;50.882;4.376;2023-03-05T05:31:56;18.17;;;8.75;;
37983;SDS011;64625;50.882;4.376;2023-03-05T05:34:23;17.63;;;7.80;;
37983;SDS011;64625;50.882;4.376;2023-03-05T05:36:50;13.75;;;7.70;;
37983;SDS011;64625;50.882;4.376;2023-03-05T05:39:16;23.20;;;9.32;;
37983;SDS011;64625;50.882;4.376;2023-03-05T05:41:42;14.35;;;7.55;;
37983;SDS011;64625;50.882;4.376;2023-03-05T05:44:09;11.32;;;8.43;;
37983;SDS011;64625;50.882;4.376;2023-03-05T05:46:35;16.45;;;7.63;;
37983;SDS011;64625;50.882;4.376;2023-03-05T05:49:02;19.00;;;8.48;;
37983;SDS011;64625;50.882;4.376;2023-03-05T05:51:28;18.55;;;8.32;;
37983;SDS011;64625;50.882;4.376;2023-03-05T05:53:53;19.88;;;8.85;;
37983;SDS011;64625;50.882;4.376;2023-03-05T05:56:19;22.58;;;9.23;;
37983;SDS011;64625;50.882;4.376;2023-03-05T05:58:46;25.75;;;9.52;;
37983;SDS011;64625;50.882;4.376;2023-03-05T06:01:18;19.27;;;9.15;;
37983;SDS011;64625;50.882;4.376;2023-03-05T06:03:47;18.23;;;8.00;;
37983;SDS011;64625;50.882;4.376;2023-03-05T06:06:17;13.63;;;8.18;;
37983;SDS011;64625;50.882;4.376;2023-03-05T06:08:45;18.20;;;8.77;;
37983;SDS011;64625;50.882;4.376;2023-03-05T06:11:11;16.70;;;9.18;;
37983;SDS011;64625;50.882;4.376;2023-03-05T06:13:37;22.48;;;9.45;;
37983;SDS011;64625;50.882;4.376;2023-03-05T06:16:05;19.40;;;8.40;;
37983;SDS011;64625;50.882;4.376;2023-03-05T06:18:32;19.58;;;10.52;;
37983;SDS011;64625;50.882;4.376;2023-03-05T06:20:59;16.38;;;7.55;;
37983;SDS011;64625;50.882;4.376;2023-03-05T06:23:27;17.02;;;9.00;;
37983;SDS011;64625;50.882;4.376;2023-03-05T06:25:53;17.10;;;7.80;;
37983;SDS011;64625;50.882;4.376;2023-03-05T06:28:21;20.60;;;9.60;;
37983;SDS011;64625;50.882;4.376;2023-03-05T06:30:47;15.35;;;7.50;;
37983;SDS011;64625;50.882;4.376;2023-03-05T06:33:12;13.52;;;7.72;;
37983;SDS011;64625;50.882;4.376;2023-03-05T06:35:38;20.42;;;8.80;;
37983;SDS011;64625;50.882;4.376;2023-03-05T06:38:05;15.35;;;8.13;;
37983;SDS011;64625;50.882;4.376;2023-03-05T06:40:31;13.88;;;8.18;;
37983;SDS011;64625;50.882;4.376;2023-03-05T06:42:58;21.75;;;9.52;;
37983;SDS011;64625;50.882;4.376;2023-03-05T06:45:23;18.08;;;9.25;;
37983;SDS011;64625;50.882;4.376;2023-03-05T06:47:49;16.60;;;7.95;;
37983;SDS011;64625;50.882;4.376;2023-03-05T06:50:15;10.90;;;7.45;;
37983;SDS011;64625;50.882;4.376;2023-03-05T06:52:41;15.80;;;7.85;;
37983;SDS011;64625;50.882;4.376;2023-03-05T06:55:07;19.73;;;8.80;;
37983;SDS011;64625;50.882;4.376;2023-03-05T06:57:35;15.88;;;8.60;;
37983;SDS011;64625;50.882;4.376;2023-03-05T07:00:02;16.20;;;6.80;;
37983;SDS011;64625;50.882;4.376;2023-03-05T07:02:35;13.52;;;7.80;;
37983;SDS011;64625;50.882;4.376;2023-03-05T07:05:01;10.38;;;6.90;;
37983;SDS011;64625;50.882;4.376;2023-03-05T07:07:28;10.93;;;6.30;;
37983;SDS011;64625;50.882;4.376;2023-03-05T07:09:53;12.02;;;6.15;;
37983;SDS011;64625;50.882;4.376;2023-03-05T07:12:19;14.18;;;9.10;;
37983;SDS011;64625;50.882;4.376;2023-03-05T07:14:45;12.73;;;8.32;;
37983;SDS011;64625;50.882;4.376;2023-03-05T07:17:13;21.38;;;8.95;;
37983;SDS011;64625;50.882;4.376;2023-03-05T07:19:39;17.35;;;6.90;;
37983;SDS011;64625;50.882;4.376;2023-03-05T07:22:06;16.10;;;7.63;;
37983;SDS011;64625;50.882;4.376;2023-03-05T07:24:33;13.98;;;8.38;;
37983;SDS011;64625;50.882;4.376;2023-03-05T07:27:00;13.60;;;8.07;;
37983;SDS011;64625;50.882;4.376;2023-03-05T07:29:26;16.38;;;7.70;;
37983;SDS011;64625;50.882;4.376;2023-03-05T07:31:53;14.50;;;7.75;;
37983;SDS011;64625;50.882;4.376;2023-03-05T07:34:19;11.43;;;7.28;;
37983;SDS011;64625;50.882;4.376;2023-03-05T07:36:48;13.57;;;7.47;;
37983;SDS011;64625;50.882;4.376;2023-03-05T07:39:15;13.75;;;7.80;;
37983;SDS011;64625;50.882;4.376;2023-03-05T07:41:43;13.77;;;8.25;;
37983;SDS011;64625;50.882;4.376;2023-03-05T07:44:14;14.38;;;8.05;;
37983;SDS011;64625;50.882;4.376;2023-03-05T07:46:41;16.80;;;7.80;;
37983;SDS011;64625;50.882;4.376;2023-03-05T07:49:08;11.82;;;7.25;;
37983;SDS011;64625;50.882;4.376;2023-03-05T07:51:33;11.65;;;6.13;;
37983;SDS011;64625;50.882;4.376;2023-03-05T07:53:59;15.25;;;6.65;;
37983;SDS011;64625;50.882;4.376;2023-03-05T07:59:03;10.10;;;6.03;;
37983;SDS011;64625;50.882;4.376;2023-03-05T08:01:30;9.48;;;6.05;;
37983;SDS011;64625;50.882;4.376;2023-03-05T08:03:57;13.65;;;6.85;;
37983;SDS011;64625;50.882;4.376;2023-03-05T08:06:22;10.52;;;6.18;;
37983;SDS011;64625;50.882;4.376;2023-03-05T08:08:48;8.20;;;5.68;;
37983;SDS011;64625;50.882;4.376;2023-03-05T08:11:15;13.20;;;5.80;;
37983;SDS011;64625;50.882;4.376;2023-03-05T08:13:41;10.50;;;7.15;;
37983;SDS011;64625;50.882;4.376;2023-03-05T08:16:15;9.02;;;5.93;;
37983;SDS011;64625;50.882;4.376;2023-03-05T08:18:43;12.15;;;5.47;;
37983;SDS011;64625;50.882;4.376;2023-03-05T08:21:20;9.38;;;5.43;;
37983;SDS011;64625;50.882;4.376;2023-03-05T08:23:51;9.75;;;5.63;;
37983;SDS011;64625;50.882;4.376;2023-03-05T08:26:18;20.48;;;5.72;;
37983;SDS011;64625;50.882;4.376;2023-03-05T08:28:46;12.48;;;5.90;;
37983;SDS011;64625;50.882;4.376;2023-03-05T08:31:13;15.32;;;5.00;;
37983;SDS011;64625;50.882;4.376;2023-03-05T08:33:40;7.30;;;4.93;;
37983;SDS011;64625;50.882;4.376;2023-03-05T08:36:06;8.93;;;4.63;;
37983;SDS011;64625;50.882;4.376;2023-03-05T08:38:33;7.05;;;5.00;;
37983;SDS011;64625;50.882;4.376;2023-03-05T08:41:00;8.98;;;5.25;;
37983;SDS011;64625;50.882;4.376;2023-03-05T08:43:25;9.05;;;4.80;;
37983;SDS011;64625;50.882;4.376;2023-03-05T08:45:51;6.07;;;4.20;;
37983;SDS011;64625;50.882;4.376;2023-03-05T08:48:17;6.78;;;4.50;;
37983;SDS011;64625;50.882;4.376;2023-03-05T08:50:44;10.60;;;4.35;;
37983;SDS011;64625;50.882;4.376;2023-03-05T08:53:10;7.75;;;5.55;;
37983;SDS011;64625;50.882;4.376;2023-03-05T08:55:36;11.40;;;6.00;;
37983;SDS011;64625;50.882;4.376;2023-03-05T08:58:03;10.45;;;5.30;;
37983;SDS011;64625;50.882;4.376;2023-03-05T09:00:28;11.27;;;5.88;;
37983;SDS011;64625;50.882;4.376;2023-03-05T09:02:54;10.77;;;6.93;;
37983;SDS011;64625;50.882;4.376;2023-03-05T09:05:20;13.52;;;4.55;;
37983;SDS011;64625;50.882;4.376;2023-03-05T09:07:46;12.98;;;5.38;;
37983;SDS011;64625;50.882;4.376;2023-03-05T09:10:12;8.43;;;4.65;;
37983;SDS011;64625;50.882;4.376;2023-03-05T09:12:39;9.15;;;4.85;;
37983;SDS011;64625;50.882;4.376;2023-03-05T09:15:06;14.55;;;6.13;;
37983;SDS011;64625;50.882;4.376;2023-03-05T09:17:37;9.40;;;4.63;;
37983;SDS011;64625;50.882;4.376;2023-03-05T09:20:06;7.15;;;4.38;;
37983;SDS011;64625;50.882;4.376;2023-03-05T09:22:38;6.82;;;5.13;;
37983;SDS011;64625;50.882;4.376;2023-03-05T09:25:05;9.23;;;4.45;;
37983;SDS011;64625;50.882;4.376;2023-03-05T09:27:32;6.47;;;4.95;;
37983;SDS011;64625;50.882;4.376;2023-03-05T09:30:02;11.90;;;5.47;;
37983;SDS011;64625;50.882;4.376;2023-03-05T09:32:30;8.00;;;5.32;;
37983;SDS011;64625;50.882;4.376;2023-03-05T09:34:56;12.52;;;5.80;;
37983;SDS011;64625;50.882;4.376;2023-03-05T09:37:22;10.10;;;6.10;;
37983;SDS011;64625;50.882;4.376;2023-03-05T09:39:48;9.55;;;5.90;;
37983;SDS011;64625;50.882;4.376;2023-03-05T09:50:47;6.43;;;4.10;;
37983;SDS011;64625;50.882;4.376;2023-03-05T09:55:53;11.55;;;4.20;;
37983;SDS011;64625;50.882;4.376;2023-03-05T09:58:28;7.72;;;3.83;;
37983;SDS011;64625;50.882;4.376;2023-03-05T10:06:46;4.50;;;3.53;;
37983;SDS011;64625;50.882;4.376;2023-03-05T10:18:10;18.02;;;7.43;;
37983;SDS011;64625;50.882;4.376;2023-03-05T10:31:32;6.25;;;3.42;;
37983;SDS011;64625;50.882;4.376;2023-03-05T10:37:34;9.80;;;4.05;;
37983;SDS011;64625;50.882;4.376;2023-03-05T10:40:42;4.65;;;2.75;;
37983;SDS011;64625;50.882;4.376;2023-03-05T10:43:06;8.38;;;3.15;;
37983;SDS011;64625;50.882;4.376;2023-03-05T10:45:51;6.78;;;2.88;;
37983;SDS011;64625;50.882;4.376;2023-03-05T10:59:48;8.10;;;5.30;;
37983;SDS011;64625;50.882;4.376;2023-03-05T11:02:16;10.65;;;7.15;;
37983;SDS011;64625;50.882;4.376;2023-03-05T11:04:43;12.35;;;6.28;;
37983;SDS011;64625;50.882;4.376;2023-03-05T11:10:00;8.38;;;5.40;;
37983;SDS011;64625;50.882;4.376;2023-03-05T11:12:32;8.82;;;5.68;;
37983;SDS011;64625;50.882;4.376;2023-03-05T11:15:41;13.48;;;5.38;;
37983;SDS011;64625;50.882;4.376;2023-03-05T11:20:45;8.07;;;4.30;;
37983;SDS011;64625;50.882;4.376;2023-03-05T11:23:22;8.20;;;4.35;;
37983;SDS011;64625;50.882;4.376;2023-03-05T11:31:22;8.10;;;4.10;;
37983;SDS011;64625;50.882;4.376;2023-03-05T11:33:57;20.45;;;5.22;;
37983;SDS011;64625;50.882;4.376;2023-03-05T11:36:34;8.15;;;3.70;;
37983;SDS011;64625;50.882;4.376;2023-03-05T11:41:35;8.15;;;4.03;;
37983;SDS011;64625;50.882;4.376;2023-03-05T11:44:13;5.85;;;3.65;;
37983;SDS011;64625;50.882;4.376;2023-03-05T11:52:44;8.82;;;5.15;;
37983;SDS011;64625;50.882;4.376;2023-03-05T12:01:25;8.70;;;4.55;;
37983;SDS011;64625;50.882;4.376;2023-03-05T12:03:56;7.90;;;5.20;;
37983;SDS011;64625;50.882;4.376;2023-03-05T12:09:38;10.35;;;6.45;;
37983;SDS011;64625;50.882;4.376;2023-03-05T12:12:28;17.17;;;6.78;;
37983;SDS011;64625;50.882;4.376;2023-03-05T12:15:05;12.38;;;8.52;;
37983;SDS011;64625;50.882;4.376;2023-03-05T12:20:36;9.43;;;7.28;;
37983;SDS011;64625;50.882;4.376;2023-03-05T12:23:18;11.05;;;7.00;;
37983;SDS011;64625;50.882;4.376;2023-03-05T12:28:16;10.45;;;7.43;;
37983;SDS011;64625;50.882;4.376;2023-03-05T12:33:58;13.95;;;7.43;;
37983;SDS011;64625;50.882;4.376;2023-03-05T12:36:44;8.25;;;5.82;;
37983;SDS011;64625;50.882;4.376;2023-03-05T12:47:44;9.27;;;6.18;;
37983;SDS011;64625;50.882;4.376;2023-03-05T12:52:53;8.73;;;6.13;;
37983;SDS011;64625;50.882;4.376;2023-03-05T12:55:27;10.00;;;6.65;;
37983;SDS011;64625;50.882;4.376;2023-03-05T12:58:01;8.85;;;6.18;;
37983;SDS011;64625;50.882;4.376;2023-03-05T13:03:28;16.27;;;7.40;;
37983;SDS011;64625;50.882;4.376;2023-03-05T13:05:57;11.18;;;6.63;;
37983;SDS011;64625;50.882;4.376;2023-03-05T13:08:28;6.53;;;5.07;;
37983;SDS011;64625;50.882;4.376;2023-03-05T13:10:59;4.22;;;3.63;;
37983;SDS011;64625;50.882;4.376;2023-03-05T13:13:28;4.07;;;3.05;;
37983;SDS011;64625;50.882;4.376;2023-03-05T13:15:59;4.43;;;2.55;;
37983;SDS011;64625;50.882;4.376;2023-03-05T13:18:27;4.68;;;1.58;;
37983;SDS011;64625;50.882;4.376;2023-03-05T13:23:33;3.22;;;1.58;;
37983;SDS011;64625;50.882;4.376;2023-03-05T13:28:39;3.97;;;1.85;;
37983;SDS011;64625;50.882;4.376;2023-03-05T13:31:16;3.15;;;1.83;;
37983;SDS011;64625;50.882;4.376;2023-03-05T13:33:50;6.32;;;1.48;;
37983;SDS011;64625;50.882;4.376;2023-03-05T13:36:21;8.05;;;3.30;;
37983;SDS011;64625;50.882;4.376;2023-03-05T13:38:53;11.25;;;4.72;;
37983;SDS011;64625;50.882;4.376;2023-03-05T13:41:21;12.98;;;5.70;;
37983;SDS011;64625;50.882;4.376;2023-03-05T13:43:52;7.88;;;3.50;;
37983;SDS011;64625;50.882;4.376;2023-03-05T13:48:58;2.92;;;1.95;;
37983;SDS011;64625;50.882;4.376;2023-03-05T13:51:43;1.67;;;1.52;;
37983;SDS011;64625;50.882;4.376;2023-03-05T13:54:12;2.15;;;1.60;;
37983;SDS011;64625;50.882;4.376;2023-03-05T13:56:59;4.63;;;1.33;;
37983;SDS011;64625;50.882;4.376;2023-03-05T13:59:31;2.63;;;0.80;;
37983;SDS011;64625;50.882;4.376;2023-03-05T14:02:19;1.23;;;1.08;;
37983;SDS011;64625;50.882;4.376;2023-03-05T14:04:46;2.67;;;1.70;;
37983;SDS011;64625;50.882;4.376;2023-03-05T14:09:53;2.83;;;1.70;;
37983;SDS011;64625;50.882;4.376;2023-03-05T14:20:56;4.38;;;1.65;;
37983;SDS011;64625;50.882;4.376;2023-03-05T14:28:52;4.20;;;1.10;;
37983;SDS011;64625;50.882;4.376;2023-03-05T14:31:52;1.38;;;1.00;;
37983;SDS011;64625;50.882;4.376;2023-03-05T14:34:21;2.30;;;1.38;;
37983;SDS011;64625;50.882;4.376;2023-03-05T14:36:56;2.30;;;1.20;;
37983;SDS011;64625;50.882;4.376;2023-03-05T14:39:25;7.60;;;1.17;;
37983;SDS011;64625;50.882;4.376;2023-03-05T14:47:23;5.40;;;1.40;;
37983;SDS011;64625;50.882;4.376;2023-03-05T14:49:50;1.00;;;0.90;;
37983;SDS011;64625;50.882;4.376;2023-03-05T14:52:17;1.15;;;0.90;;
37983;SDS011;64625;50.882;4.376;2023-03-05T14:54:45;1.77;;;1.02;;
37983;SDS011;64625;50.882;4.376;2023-03-05T14:57:13;1.48;;;0.98;;
37983;SDS011;64625;50.882;4.376;2023-03-05T14:59:44;1.60;;;1.00;;
37983;SDS011;64625;50.882;4.376;2023-03-05T15:02:17;1.92;;;1.48;;
37983;SDS011;64625;50.882;4.376;2023-03-05T15:04:45;4.57;;;1.30;;
37983;SDS011;64625;50.882;4.376;2023-03-05T15:07:16;1.20;;;1.10;;
37983;SDS011;64625;50.882;4.376;2023-03-05T15:09:45;2.20;;;1.58;;
37983;SDS011;64625;50.882;4.376;2023-03-05T15:12:11;2.30;;;1.80;;
37983;SDS011;64625;50.882;4.376;2023-03-05T15:14:39;5.70;;;1.83;;
37983;SDS011;64625;50.882;4.376;2023-03-05T15:17:21;2.42;;;1.40;;
37983;SDS011;64625;50.882;4.376;2023-03-05T15:19:51;2.67;;;1.27;;
37983;SDS011;64625;50.882;4.376;2023-03-05T15:22:20;3.45;;;1.90;;
37983;SDS011;64625;50.882;4.376;2023-03-05T15:24:46;5.47;;;1.30;;
37983;SDS011;64625;50.882;4.376;2023-03-05T15:27:12;7.07;;;1.77;;
37983;SDS011;64625;50.882;4.376;2023-03-05T15:29:48;10.82;;;1.85;;
37983;SDS011;64625;50.882;4.376;2023-03-05T15:32:14;7.07;;;1.95;;
37983;SDS011;64625;50.882;4.376;2023-03-05T15:34:40;2.63;;;1.50;;
37983;SDS011;64625;50.882;4.376;2023-03-05T15:37:06;3.63;;;2.30;;
37983;SDS011;64625;50.882;4.376;2023-03-05T15:39:32;2.72;;;1.75;;
37983;SDS011;64625;50.882;4.376;2023-03-05T15:41:58;2.10;;;1.90;;
37983;SDS011;64625;50.882;4.376;2023-03-05T15:44:27;3.80;;;1.80;;
37983;SDS011;64625;50.882;4.376;2023-03-05T15:46:54;6.00;;;1.88;;
37983;SDS011;64625;50.882;4.376;2023-03-05T15:49:23;5.57;;;1.95;;
37983;SDS011;64625;50.882;4.376;2023-03-05T15:51:50;9.88;;;2.20;;
37983;SDS011;64625;50.882;4.376;2023-03-05T15:54:17;7.30;;;2.25;;
37983;SDS011;64625;50.882;4.376;2023-03-05T15:56:49;5.03;;;2.03;;
37983;SDS011;64625;50.882;4.376;2023-03-05T15:59:18;7.88;;;2.00;;
37983;SDS011;64625;50.882;4.376;2023-03-05T16:01:46;4.70;;;1.83;;
37983;SDS011;64625;50.882;4.376;2023-03-05T16:04:15;3.00;;;2.28;;
37983;SDS011;64625;50.882;4.376;2023-03-05T16:06:42;7.03;;;1.98;;
37983;SDS011;64625;50.882;4.376;2023-03-05T16:09:14;4.13;;;2.22;;
37983;SDS011;64625;50.882;4.376;2023-03-05T16:11:41;3.15;;;2.20;;
37983;SDS011;64625;50.882;4.376;2023-03-05T16:14:18;7.63;;;2.47;;
37983;SDS011;64625;50.882;4.376;2023-03-05T16:16:47;4.93;;;2.50;;
37983;SDS011;64625;50.882;4.376;2023-03-05T16:19:15;9.60;;;2.30;;
37983;SDS011;64625;50.882;4.376;2023-03-05T16:21:42;6.60;;;3.28;;
37983;SDS011;64625;50.882;4.376;2023-03-05T16:24:08;4.20;;;2.83;;
37983;SDS011;64625;50.882;4.376;2023-03-05T16:26:43;7.63;;;2.85;;
37983;SDS011;64625;50.882;4.376;2023-03-05T16:29:10;9.10;;;3.33;;
37983;SDS011;64625;50.882;4.376;2023-03-05T16:31:36;5.53;;;3.55;;
37983;SDS011;64625;50.882;4.376;2023-03-05T16:34:04;7.00;;;3.88;;
37983;SDS011;64625;50.882;4.376;2023-03-05T16:36:33;14.40;;;3.85;;
37983;SDS011;64625;50.882;4.376;2023-03-05T16:39:00;9.75;;;3.60;;
37983;SDS011;64625;50.882;4.376;2023-03-05T16:41:28;6.45;;;4.25;;
37983;SDS011;64625;50.882;4.376;2023-03-05T16:43:54;6.75;;;4.03;;
37983;SDS011;64625;50.882;4.376;2023-03-05T16:46:23;8.75;;;4.10;;
37983;SDS011;64625;50.882;4.376;2023-03-05T16:48:57;12.55;;;4.38;;
37983;SDS011;64625;50.882;4.376;2023-03-05T16:51:22;6.78;;;4.55;;
37983;SDS011;64625;50.882;4.376;2023-03-05T16:53:48;7.65;;;3.72;;
37983;SDS011;64625;50.882;4.376;2023-03-05T16:56:15;9.00;;;4.82;;
37983;SDS011;64625;50.882;4.376;2023-03-05T16:58:41;11.10;;;4.15;;
37983;SDS011;64625;50.882;4.376;2023-03-05T17:01:11;11.65;;;4.95;;
37983;SDS011;64625;50.882;4.376;2023-03-05T17:06:14;6.40;;;4.75;;
37983;SDS011;64625;50.882;4.376;2023-03-05T17:08:43;11.40;;;4.63;;
37983;SDS011;64625;50.882;4.376;2023-03-05T17:11:10;11.32;;;5.40;;
37983;SDS011;64625;50.882;4.376;2023-03-05T17:13:36;9.38;;;5.78;;